createdAt,value
2022-10-16T00:01:33.917Z,0
2022-10-16T00:06:46.358Z,0
2022-10-16T00:11:58.575Z,0
2022-10-16T00:17:10.967Z,0
2022-10-16T00:22:24.025Z,0
2022-10-16T00:27:36.188Z,0
2022-10-16T00:38:00.782Z,0
2022-10-16T00:43:13.338Z,0
2022-10-16T00:48:25.912Z,0
2022-10-16T00:53:38.124Z,0
2022-10-16T00:58:50.533Z,0
2022-10-16T01:04:02.858Z,0
2022-10-16T01:09:15.218Z,0
2022-10-16T01:14:27.592Z,0
2022-10-16T01:19:39.849Z,0
2022-10-16T01:24:52.225Z,0
2022-10-16T01:30:04.657Z,0
2022-10-16T01:35:16.963Z,0
2022-10-16T01:40:29.380Z,0
2022-10-16T01:45:41.620Z,0
2022-10-16T01:50:53.813Z,0
2022-10-16T01:56:06.127Z,0
2022-10-16T02:01:18.421Z,0
2022-10-16T02:06:30.771Z,0
2022-10-16T02:11:43.121Z,0
2022-10-16T02:16:55.455Z,0
2022-10-16T02:22:08.066Z,0
2022-10-16T02:27:20.503Z,0
2022-10-16T02:32:32.847Z,0
2022-10-16T02:37:45.351Z,0
2022-10-16T02:42:57.779Z,0
2022-10-16T02:48:10.127Z,0
2022-10-16T02:53:22.440Z,0
2022-10-16T02:58:34.646Z,0
2022-10-16T03:03:47.200Z,0
2022-10-16T03:08:59.340Z,0
2022-10-16T03:24:36.450Z,0
2022-10-16T03:29:48.997Z,0
2022-10-16T03:35:01.435Z,0
2022-10-16T03:40:13.626Z,0
2022-10-16T03:45:25.906Z,0
2022-10-16T03:50:38.411Z,0
2022-10-16T03:55:50.465Z,0
2022-10-16T04:01:02.817Z,0
2022-10-16T04:06:15.195Z,0
2022-10-16T04:11:27.427Z,0
2022-10-16T04:16:39.933Z,0
2022-10-16T04:21:52.260Z,0
2022-10-16T04:27:04.540Z,0
2022-10-16T04:32:16.881Z,0
2022-10-16T04:37:29.492Z,0
2022-10-16T04:42:41.618Z,0
2022-10-16T04:47:53.971Z,0
2022-10-16T04:53:06.336Z,0
2022-10-16T04:58:18.784Z,0
2022-10-16T05:08:43.787Z,0
2022-10-16T05:13:56.122Z,0
2022-10-16T05:24:20.756Z,459
2022-10-16T05:29:33.245Z,1202
2022-10-16T05:34:45.470Z,2237
2022-10-16T05:39:57.915Z,3261
2022-10-16T05:45:10.108Z,4524
2022-10-16T05:50:22.539Z,5158
2022-10-16T05:55:34.986Z,5193
2022-10-16T06:00:47.439Z,5135
2022-10-16T06:11:11.914Z,5096
2022-10-16T06:16:24.365Z,5050
2022-10-16T06:21:36.762Z,5158
2022-10-16T06:26:49.208Z,5124
2022-10-16T06:32:01.543Z,5193
2022-10-16T06:37:13.850Z,5096
2022-10-16T06:42:26.681Z,5103
2022-10-16T06:47:40.535Z,5129
2022-10-16T06:52:52.867Z,5168
2022-10-16T06:58:05.264Z,5089
2022-10-16T07:03:17.732Z,5117
2022-10-16T07:08:30.246Z,5195
2022-10-16T07:13:42.709Z,5099
2022-10-16T07:18:55.310Z,5053
2022-10-16T07:24:07.213Z,5149
2022-10-16T07:29:19.676Z,5041
2022-10-16T07:34:32.057Z,5200
2022-10-16T07:39:44.714Z,5163
2022-10-16T07:44:56.951Z,5126
2022-10-16T07:50:09.258Z,5037
2022-10-16T07:55:21.583Z,5138
2022-10-16T08:00:33.795Z,5014
2022-10-16T08:05:46.424Z,5140
2022-10-16T08:10:58.771Z,5133
2022-10-16T08:16:11.316Z,5138
2022-10-16T08:21:23.832Z,5175
2022-10-16T08:26:36.129Z,5122
2022-10-16T08:31:48.380Z,5202
2022-10-16T08:37:00.658Z,5204
2022-10-16T08:42:13.087Z,5069
2022-10-16T08:47:25.435Z,5163
2022-10-16T08:57:50.158Z,5094
2022-10-16T09:03:02.547Z,5170
2022-10-16T09:08:15.621Z,5211
2022-10-16T09:13:27.836Z,5211
2022-10-16T09:18:40.284Z,5046
2022-10-16T09:23:52.752Z,5214
2022-10-16T09:29:05.152Z,5142
2022-10-16T09:34:17.470Z,5216
2022-10-16T09:39:29.982Z,5214
2022-10-16T09:44:42.635Z,5170
2022-10-16T09:49:55.038Z,5191
2022-10-16T09:55:07.350Z,5175
2022-10-16T10:00:19.916Z,5195
2022-10-16T10:05:32.207Z,5223
2022-10-16T10:10:44.429Z,5223
2022-10-16T10:15:56.757Z,5200
2022-10-16T10:21:18.637Z,5172
2022-10-16T10:26:31.500Z,5198
2022-10-16T10:31:43.992Z,5200
2022-10-16T10:36:56.314Z,5161
2022-10-16T10:42:08.611Z,5204
2022-10-16T10:47:21.038Z,5225
2022-10-16T10:52:33.097Z,5207
2022-10-16T10:57:45.476Z,5227
2022-10-16T11:02:58.014Z,5221
2022-10-16T11:08:10.330Z,5223
2022-10-16T11:13:22.661Z,5237
2022-10-16T11:18:34.875Z,5232
2022-10-16T11:23:47.338Z,5232
2022-10-16T11:34:11.915Z,5232
2022-10-16T11:39:24.269Z,5232
2022-10-16T11:44:36.535Z,5204
2022-10-16T11:49:48.912Z,5209
2022-10-16T11:55:01.360Z,5218
2022-10-16T12:00:13.508Z,5168
2022-10-16T12:05:25.858Z,5193
2022-10-16T12:15:59.368Z,5227
2022-10-16T12:21:03.212Z,5221
2022-10-16T12:26:15.710Z,5230
2022-10-16T12:31:28.334Z,5239
2022-10-16T12:36:40.726Z,5230
2022-10-16T12:41:53.284Z,5211
2022-10-16T12:47:05.584Z,5250
2022-10-16T12:52:17.803Z,5230
2022-10-16T12:57:31.070Z,5232
2022-10-16T13:02:42.770Z,5234
2022-10-16T13:07:55.086Z,5225
2022-10-16T13:13:07.443Z,5239
2022-10-16T13:18:19.849Z,5209
2022-10-16T13:23:32.586Z,5209
2022-10-16T13:28:45.293Z,5214
2022-10-16T13:33:57.641Z,5218
2022-10-16T13:39:10.274Z,5267
2022-10-16T13:44:22.517Z,5244
2022-10-16T13:49:35.023Z,5237
2022-10-16T13:54:47.552Z,5193
2022-10-16T14:00:00.038Z,5264
2022-10-16T14:05:12.209Z,5218
2022-10-16T14:10:24.414Z,5237
2022-10-16T14:15:36.965Z,5221
2022-10-16T14:20:49.477Z,5239
2022-10-16T14:26:01.766Z,5225
2022-10-16T14:31:14.359Z,5221
2022-10-16T14:36:26.771Z,5255
2022-10-16T14:41:38.953Z,5246
2022-10-16T14:52:03.812Z,5223
2022-10-16T14:57:16.092Z,5250
2022-10-16T15:02:28.477Z,5246
2022-10-16T15:07:40.772Z,5237
2022-10-16T15:12:53.039Z,5255
2022-10-16T15:18:05.353Z,5253
2022-10-16T15:23:17.506Z,5246
2022-10-16T15:28:29.700Z,5237
2022-10-16T15:33:42.149Z,5232
2022-10-16T15:38:54.351Z,5248
2022-10-16T15:44:06.730Z,5255
2022-10-16T15:49:19.412Z,5237
2022-10-16T15:54:31.379Z,5232
2022-10-16T15:59:43.675Z,5239
2022-10-16T16:04:56.067Z,5225
2022-10-16T16:10:08.368Z,4751
2022-10-16T16:15:20.479Z,4036
2022-10-16T16:20:32.726Z,3019
2022-10-16T16:25:45.028Z,1747
2022-10-16T16:30:57.358Z,821
2022-10-16T16:36:14.630Z,119
2022-10-16T16:41:21.990Z,0
2022-10-16T16:46:34.210Z,0
2022-10-16T16:51:46.672Z,0
2022-10-16T16:56:59.060Z,0
2022-10-16T17:02:11.436Z,0
2022-10-16T17:07:24.378Z,0
2022-10-16T17:12:36.149Z,0
2022-10-16T17:17:48.363Z,0
2022-10-16T17:23:01.427Z,0
2022-10-16T17:28:13.604Z,0
2022-10-16T17:38:38.357Z,0
2022-10-16T17:43:50.829Z,0
2022-10-16T17:49:03.132Z,0
2022-10-16T17:54:15.549Z,0
2022-10-16T17:59:27.868Z,0
2022-10-16T18:04:40.177Z,0
2022-10-16T18:10:13.445Z,0
2022-10-16T18:15:05.036Z,0
2022-10-16T18:20:17.521Z,0
2022-10-16T18:25:29.912Z,0
2022-10-16T18:30:42.219Z,0
2022-10-16T18:35:54.284Z,0
2022-10-16T18:41:06.847Z,0
2022-10-16T18:46:19.085Z,0
2022-10-16T18:51:31.609Z,0
2022-10-16T18:56:44.022Z,0
2022-10-16T19:01:56.593Z,0
2022-10-16T19:07:08.897Z,0
2022-10-16T19:12:21.234Z,0
2022-10-16T19:17:33.622Z,0
2022-10-16T19:22:45.633Z,0
2022-10-16T19:27:57.996Z,0
2022-10-16T19:33:10.469Z,0
2022-10-16T19:38:22.930Z,0
2022-10-16T19:43:35.893Z,0
2022-10-16T19:48:48.205Z,0
2022-10-16T19:54:00.569Z,0
2022-10-16T19:59:13.095Z,0
2022-10-16T20:04:25.363Z,0
2022-10-16T20:09:37.693Z,0
2022-10-16T20:20:02.024Z,0
2022-10-16T20:25:16.676Z,0
2022-10-16T20:30:27.159Z,0
2022-10-16T20:35:39.562Z,0
2022-10-16T20:40:51.918Z,0
2022-10-16T20:46:04.068Z,0
2022-10-16T20:51:16.409Z,0
2022-10-16T20:56:28.823Z,0
2022-10-16T21:01:41.227Z,0
2022-10-16T21:06:53.625Z,0
2022-10-16T21:12:05.915Z,0
2022-10-16T21:17:18.326Z,0
2022-10-16T21:22:30.644Z,0
2022-10-16T21:27:42.826Z,0
2022-10-16T21:32:55.279Z,0
2022-10-16T21:38:07.471Z,0
2022-10-16T21:43:19.801Z,0
2022-10-16T21:48:32.242Z,0
2022-10-16T21:53:44.547Z,0
2022-10-16T22:04:09.319Z,0
2022-10-16T22:09:21.594Z,0
2022-10-16T22:14:34.057Z,0
2022-10-16T22:19:46.432Z,0
2022-10-16T22:25:01.751Z,0
2022-10-16T22:30:14.818Z,0
2022-10-16T22:35:27.015Z,0
2022-10-16T22:40:39.432Z,0
2022-10-16T22:45:52.101Z,0
2022-10-16T22:51:04.280Z,0
2022-10-16T23:01:29.079Z,0
2022-10-16T23:06:41.290Z,0
2022-10-16T23:11:53.563Z,0
2022-10-16T23:17:05.920Z,0
2022-10-16T23:22:18.258Z,0
2022-10-16T23:27:30.423Z,0
2022-10-16T23:32:42.688Z,0
2022-10-16T23:37:54.907Z,0
2022-10-16T23:43:07.699Z,0
2022-10-16T23:48:20.169Z,0
2022-10-16T23:53:32.618Z,0
2022-10-16T23:58:45.013Z,0
